RYR12GA LIRF-LIMJ
Flight info
| Callsign | RYR12GA |
|---|---|
| Flight time | 0h 43m |
| Altitude | 28000 |
| Route | GILIO DCT ELB DCT BETEN M729 IDONA |
| Aircraft | B38M/M-SDE1FGHILORVWXY/HB1 |
Departure
| Time | 2026-05-07 19:40 |
|---|---|
| Airport | Rome–Fiumicino Leonardo da Vinci International Airport (LIRF) |
Arrival
| Time | 2026-05-07 20:24 |
|---|---|
| Airport | Genoa Cristoforo Colombo Airport (LIMJ) |
| Time | Latitude | Longitude | Altitude | Speed | Heading |
|---|---|---|---|---|---|
| 2026-05-07 19:17 | 41.79758 | 12.25496 | 17 ft | 0 kts | 115° |
| 2026-05-07 19:30 | 41.79763 | 12.25483 | 16 ft | 4 kts | 115° |
| 2026-05-07 19:30 | 41.79771 | 12.25451 | 18 ft | 4 kts | 82° |
| 2026-05-07 19:30 | 41.79758 | 12.25425 | 18 ft | 4 kts | 31° |
| 2026-05-07 19:31 | 41.79751 | 12.25420 | 16 ft | 1 kts | 25° |
| 2026-05-07 19:34 | 41.79761 | 12.25426 | 19 ft | 3 kts | 25° |
| 2026-05-07 19:34 | 41.79789 | 12.25444 | 19 ft | 6 kts | 25° |
| 2026-05-07 19:35 | 41.79836 | 12.25474 | 16 ft | 9 kts | 25° |
| 2026-05-07 19:35 | 41.79902 | 12.25514 | 16 ft | 12 kts | 24° |
| 2026-05-07 19:35 | 41.79932 | 12.25592 | 16 ft | 12 kts | 111° |
| 2026-05-07 19:35 | 41.79896 | 12.25703 | 19 ft | 14 kts | 115° |
| 2026-05-07 19:36 | 41.79894 | 12.25828 | 17 ft | 15 kts | 37° |
| 2026-05-07 19:36 | 41.79997 | 12.25898 | 17 ft | 18 kts | 25° |
| 2026-05-07 19:36 | 41.80074 | 12.25947 | 19 ft | 19 kts | 25° |
| 2026-05-07 19:37 | 41.80583 | 12.26445 | 19 ft | 19 kts | 67° |
| 2026-05-07 19:38 | 41.80637 | 12.26624 | 18 ft | 22 kts | 70° |
| 2026-05-07 19:38 | 41.80691 | 12.26823 | 16 ft | 22 kts | 70° |
| 2026-05-07 19:38 | 41.80737 | 12.26988 | 17 ft | 18 kts | 64° |
| 2026-05-07 19:38 | 41.80834 | 12.27031 | 16 ft | 17 kts | 339° |
| 2026-05-07 19:39 | 41.80876 | 12.27009 | 16 ft | 2 kts | 339° |
| 2026-05-07 19:39 | 41.80896 | 12.26998 | 16 ft | 5 kts | 339° |
| 2026-05-07 19:39 | 41.80945 | 12.26968 | 16 ft | 10 kts | 319° |
| 2026-05-07 19:39 | 41.80951 | 12.26905 | 15 ft | 11 kts | 256° |
| 2026-05-07 19:40 | 41.80826 | 12.26452 | 20 ft | 88 kts | 250° |
| 2026-05-07 19:40 | 41.80529 | 12.25378 | 23 ft | 155 kts | 250° |
| 2026-05-07 19:40 | 41.80107 | 12.23912 | 476 ft | 177 kts | 250° |
| 2026-05-07 19:40 | 41.79627 | 12.22313 | 1210 ft | 184 kts | 252° |
| 2026-05-07 19:41 | 41.79306 | 12.20667 | 2032 ft | 193 kts | 268° |
| 2026-05-07 19:41 | 41.79255 | 12.18763 | 2586 ft | 215 kts | 271° |
| 2026-05-07 19:41 | 41.79211 | 12.16647 | 3254 ft | 242 kts | 269° |
| 2026-05-07 19:41 | 41.79153 | 12.14303 | 4061 ft | 256 kts | 269° |
| 2026-05-07 19:42 | 41.79089 | 12.11850 | 4929 ft | 271 kts | 268° |
| 2026-05-07 19:42 | 41.79046 | 12.09288 | 5929 ft | 276 kts | 269° |
| 2026-05-07 19:42 | 41.79047 | 12.06712 | 7053 ft | 277 kts | 268° |
| 2026-05-07 19:42 | 41.79045 | 12.04115 | 8096 ft | 280 kts | 268° |
| 2026-05-07 19:43 | 41.79038 | 12.01506 | 9196 ft | 281 kts | 269° |
| 2026-05-07 19:43 | 41.79030 | 11.98871 | 10159 ft | 285 kts | 269° |
| 2026-05-07 19:43 | 41.79024 | 11.97087 | 10640 ft | 294 kts | 268° |
| 2026-05-07 19:43 | 41.79014 | 11.94265 | 11212 ft | 310 kts | 268° |
| 2026-05-07 19:44 | 41.79010 | 11.90355 | 12255 ft | 319 kts | 271° |
| 2026-05-07 19:44 | 41.79243 | 11.88359 | 12891 ft | 324 kts | 285° |
| 2026-05-07 19:44 | 41.80190 | 11.85588 | 13818 ft | 329 kts | 296° |
| 2026-05-07 19:44 | 41.81256 | 11.82846 | 14609 ft | 333 kts | 295° |
| 2026-05-07 19:45 | 41.82309 | 11.80061 | 15471 ft | 336 kts | 294° |
| 2026-05-07 19:45 | 41.83359 | 11.77252 | 16300 ft | 339 kts | 294° |
| 2026-05-07 19:45 | 41.84413 | 11.74414 | 17132 ft | 342 kts | 294° |
| 2026-05-07 19:45 | 41.85474 | 11.71549 | 17925 ft | 345 kts | 294° |
| 2026-05-07 19:46 | 41.86545 | 11.68652 | 18647 ft | 348 kts | 294° |
| 2026-05-07 19:46 | 41.87623 | 11.65732 | 19333 ft | 350 kts | 294° |
| 2026-05-07 19:46 | 41.88708 | 11.62789 | 20012 ft | 353 kts | 294° |
| 2026-05-07 19:46 | 41.89839 | 11.59850 | 20677 ft | 357 kts | 300° |
| 2026-05-07 19:47 | 41.91466 | 11.57301 | 21379 ft | 361 kts | 310° |
| 2026-05-07 19:47 | 41.93171 | 11.54851 | 21979 ft | 365 kts | 310° |
| 2026-05-07 19:47 | 41.94912 | 11.52355 | 22648 ft | 368 kts | 310° |
| 2026-05-07 19:47 | 41.96675 | 11.49844 | 23278 ft | 370 kts | 310° |
| 2026-05-07 19:48 | 41.98449 | 11.47323 | 23834 ft | 373 kts | 310° |
| 2026-05-07 19:48 | 42.00245 | 11.44772 | 24336 ft | 376 kts | 310° |
| 2026-05-07 19:48 | 42.02050 | 11.42208 | 24824 ft | 379 kts | 310° |
| 2026-05-07 19:48 | 42.03872 | 11.39618 | 25303 ft | 382 kts | 309° |
| 2026-05-07 19:49 | 42.05709 | 11.37005 | 25788 ft | 386 kts | 309° |
| 2026-05-07 19:49 | 42.07556 | 11.34376 | 26302 ft | 387 kts | 309° |
| 2026-05-07 19:49 | 42.09401 | 11.31746 | 26906 ft | 386 kts | 309° |
| 2026-05-07 19:49 | 42.11242 | 11.29119 | 27530 ft | 385 kts | 308° |
| 2026-05-07 19:50 | 42.13083 | 11.26493 | 27927 ft | 387 kts | 308° |
| 2026-05-07 19:50 | 42.14919 | 11.23869 | 27989 ft | 383 kts | 308° |
| 2026-05-07 19:50 | 42.16741 | 11.21263 | 27985 ft | 382 kts | 308° |
| 2026-05-07 19:50 | 42.18560 | 11.18660 | 27987 ft | 381 kts | 308° |
| 2026-05-07 19:51 | 42.20378 | 11.16056 | 27983 ft | 381 kts | 308° |
| 2026-05-07 19:51 | 42.22196 | 11.13449 | 27984 ft | 382 kts | 308° |
| 2026-05-07 19:51 | 42.24018 | 11.10833 | 27987 ft | 382 kts | 308° |
| 2026-05-07 19:51 | 42.25837 | 11.08219 | 27989 ft | 382 kts | 308° |
| 2026-05-07 19:52 | 42.27653 | 11.05608 | 27989 ft | 382 kts | 308° |
| 2026-05-07 19:52 | 42.29472 | 11.02990 | 27991 ft | 382 kts | 308° |
| 2026-05-07 19:52 | 42.31295 | 11.00364 | 27993 ft | 382 kts | 308° |
| 2026-05-07 19:52 | 42.33111 | 10.97746 | 27993 ft | 382 kts | 308° |
| 2026-05-07 19:53 | 42.34928 | 10.95124 | 27993 ft | 382 kts | 308° |
| 2026-05-07 19:53 | 42.36746 | 10.92500 | 27993 ft | 382 kts | 308° |
| 2026-05-07 19:53 | 42.40380 | 10.87247 | 27992 ft | 382 kts | 308° |
| 2026-05-07 19:54 | 42.42194 | 10.84621 | 27994 ft | 382 kts | 308° |
| 2026-05-07 19:54 | 42.44008 | 10.81994 | 27993 ft | 382 kts | 308° |
| 2026-05-07 19:54 | 42.45827 | 10.79357 | 27992 ft | 382 kts | 308° |
| 2026-05-07 19:54 | 42.47641 | 10.76724 | 27992 ft | 382 kts | 308° |
| 2026-05-07 19:55 | 42.49455 | 10.74091 | 27992 ft | 382 kts | 308° |
| 2026-05-07 19:55 | 42.51269 | 10.71453 | 27994 ft | 383 kts | 308° |
| 2026-05-07 19:55 | 42.54876 | 10.66203 | 28002 ft | 378 kts | 307° |
| 2026-05-07 19:56 | 42.56667 | 10.63592 | 27999 ft | 378 kts | 307° |
| 2026-05-07 19:56 | 42.58457 | 10.60980 | 27999 ft | 378 kts | 307° |
| 2026-05-07 19:56 | 42.60249 | 10.58364 | 27994 ft | 378 kts | 307° |
| 2026-05-07 19:56 | 42.62037 | 10.55750 | 28003 ft | 379 kts | 307° |
| 2026-05-07 19:57 | 42.63810 | 10.53156 | 27999 ft | 379 kts | 307° |
| 2026-05-07 19:57 | 42.65606 | 10.50527 | 27998 ft | 380 kts | 307° |
| 2026-05-07 19:57 | 42.67400 | 10.47897 | 28000 ft | 380 kts | 307° |
| 2026-05-07 19:57 | 42.69197 | 10.45261 | 27997 ft | 380 kts | 307° |
| 2026-05-07 19:58 | 42.70990 | 10.42630 | 27997 ft | 380 kts | 307° |
| 2026-05-07 19:58 | 42.72833 | 10.40049 | 27986 ft | 384 kts | 315° |
| 2026-05-07 19:58 | 42.75121 | 10.38103 | 28019 ft | 393 kts | 326° |
| 2026-05-07 19:58 | 42.77498 | 10.36304 | 27998 ft | 389 kts | 324° |
| 2026-05-07 19:59 | 42.82204 | 10.32708 | 28000 ft | 388 kts | 324° |
| 2026-05-07 19:59 | 42.86922 | 10.29140 | 28001 ft | 388 kts | 324° |
| 2026-05-07 20:00 | 42.89281 | 10.27357 | 27996 ft | 388 kts | 324° |
| 2026-05-07 20:00 | 42.91629 | 10.25583 | 28008 ft | 379 kts | 324° |
| 2026-05-07 20:00 | 42.93897 | 10.23868 | 28006 ft | 366 kts | 324° |
| 2026-05-07 20:00 | 42.96115 | 10.22187 | 28010 ft | 363 kts | 324° |
| 2026-05-07 20:01 | 43.00522 | 10.18844 | 28014 ft | 362 kts | 324° |
| 2026-05-07 20:01 | 43.04936 | 10.15492 | 28005 ft | 363 kts | 324° |
| 2026-05-07 20:02 | 43.09361 | 10.12124 | 27193 ft | 372 kts | 324° |
| 2026-05-07 20:02 | 43.11648 | 10.10383 | 26442 ft | 379 kts | 325° |
| 2026-05-07 20:02 | 43.13972 | 10.08612 | 25680 ft | 386 kts | 326° |
| 2026-05-07 20:03 | 43.16336 | 10.06808 | 24928 ft | 392 kts | 326° |
| 2026-05-07 20:03 | 43.18739 | 10.04974 | 24188 ft | 398 kts | 326° |
| 2026-05-07 20:03 | 43.21171 | 10.03114 | 23444 ft | 403 kts | 327° |
| 2026-05-07 20:03 | 43.23628 | 10.01234 | 22691 ft | 405 kts | 327° |
| 2026-05-07 20:04 | 43.26070 | 9.99363 | 22259 ft | 399 kts | 327° |
| 2026-05-07 20:04 | 43.28466 | 9.97526 | 21891 ft | 391 kts | 327° |
| 2026-05-07 20:04 | 43.30827 | 9.95714 | 21504 ft | 386 kts | 327° |
| 2026-05-07 20:04 | 43.33152 | 9.93928 | 21109 ft | 381 kts | 327° |
| 2026-05-07 20:05 | 43.35453 | 9.92159 | 20711 ft | 377 kts | 327° |
| 2026-05-07 20:05 | 43.37728 | 9.90409 | 20325 ft | 373 kts | 327° |
| 2026-05-07 20:05 | 43.39975 | 9.88679 | 19938 ft | 369 kts | 327° |
| 2026-05-07 20:05 | 43.42206 | 9.86960 | 19572 ft | 366 kts | 328° |
| 2026-05-07 20:06 | 43.44416 | 9.85255 | 19184 ft | 362 kts | 328° |
| 2026-05-07 20:06 | 43.46607 | 9.83564 | 18809 ft | 360 kts | 328° |
| 2026-05-07 20:06 | 43.48780 | 9.81885 | 18437 ft | 357 kts | 328° |
| 2026-05-07 20:06 | 43.50940 | 9.80216 | 18036 ft | 355 kts | 328° |
| 2026-05-07 20:07 | 43.53085 | 9.78556 | 17633 ft | 352 kts | 328° |
| 2026-05-07 20:07 | 43.55206 | 9.76913 | 17247 ft | 348 kts | 328° |
| 2026-05-07 20:07 | 43.57313 | 9.75278 | 16863 ft | 346 kts | 328° |
| 2026-05-07 20:07 | 43.59397 | 9.73661 | 16510 ft | 342 kts | 328° |
| 2026-05-07 20:08 | 43.61463 | 9.72056 | 16152 ft | 339 kts | 328° |
| 2026-05-07 20:08 | 43.63508 | 9.70467 | 15806 ft | 336 kts | 329° |
| 2026-05-07 20:08 | 43.65536 | 9.68890 | 15452 ft | 333 kts | 329° |
| 2026-05-07 20:08 | 43.67544 | 9.67326 | 15105 ft | 331 kts | 329° |
| 2026-05-07 20:09 | 43.69549 | 9.65765 | 14600 ft | 329 kts | 329° |
| 2026-05-07 20:09 | 43.71520 | 9.64228 | 14187 ft | 322 kts | 329° |
| 2026-05-07 20:09 | 43.73446 | 9.62726 | 13859 ft | 313 kts | 329° |
| 2026-05-07 20:10 | 43.77128 | 9.59850 | 13176 ft | 295 kts | 329° |
| 2026-05-07 20:10 | 43.78845 | 9.58362 | 12806 ft | 288 kts | 326° |
| 2026-05-07 20:10 | 43.80528 | 9.56873 | 12524 ft | 285 kts | 326° |
| 2026-05-07 20:10 | 43.82188 | 9.55410 | 12242 ft | 282 kts | 326° |
| 2026-05-07 20:11 | 43.83853 | 9.53946 | 11958 ft | 286 kts | 326° |
| 2026-05-07 20:11 | 43.85546 | 9.52460 | 11660 ft | 290 kts | 327° |
| 2026-05-07 20:11 | 43.87259 | 9.50956 | 11346 ft | 291 kts | 327° |
| 2026-05-07 20:11 | 43.88972 | 9.49450 | 11035 ft | 292 kts | 327° |
| 2026-05-07 20:12 | 43.90683 | 9.47946 | 10725 ft | 291 kts | 327° |
| 2026-05-07 20:12 | 43.92385 | 9.46449 | 10417 ft | 289 kts | 327° |
| 2026-05-07 20:12 | 43.94058 | 9.44976 | 10147 ft | 286 kts | 327° |
| 2026-05-07 20:12 | 43.95725 | 9.43508 | 9912 ft | 282 kts | 327° |
| 2026-05-07 20:13 | 43.97372 | 9.42056 | 9572 ft | 280 kts | 327° |
| 2026-05-07 20:13 | 43.99013 | 9.40609 | 9262 ft | 278 kts | 327° |
| 2026-05-07 20:13 | 44.00638 | 9.39174 | 8959 ft | 276 kts | 327° |
| 2026-05-07 20:13 | 44.02255 | 9.37746 | 8658 ft | 274 kts | 327° |
| 2026-05-07 20:14 | 44.03858 | 9.36330 | 8363 ft | 272 kts | 327° |
| 2026-05-07 20:14 | 44.05449 | 9.34923 | 8076 ft | 270 kts | 327° |
| 2026-05-07 20:14 | 44.07026 | 9.33528 | 7776 ft | 268 kts | 327° |
| 2026-05-07 20:14 | 44.08595 | 9.32138 | 7485 ft | 266 kts | 327° |
| 2026-05-07 20:15 | 44.10154 | 9.30757 | 7205 ft | 265 kts | 327° |
| 2026-05-07 20:15 | 44.11700 | 9.29386 | 6920 ft | 263 kts | 327° |
| 2026-05-07 20:15 | 44.13242 | 9.28019 | 6641 ft | 262 kts | 326° |
| 2026-05-07 20:15 | 44.14773 | 9.26660 | 6349 ft | 260 kts | 326° |
| 2026-05-07 20:16 | 44.16298 | 9.25305 | 6045 ft | 259 kts | 326° |
| 2026-05-07 20:16 | 44.17812 | 9.23959 | 5751 ft | 258 kts | 326° |
| 2026-05-07 20:16 | 44.19321 | 9.22617 | 5467 ft | 256 kts | 326° |
| 2026-05-07 20:16 | 44.20818 | 9.21285 | 5188 ft | 254 kts | 326° |
| 2026-05-07 20:17 | 44.22305 | 9.19962 | 4909 ft | 253 kts | 326° |
| 2026-05-07 20:17 | 44.23783 | 9.18645 | 4641 ft | 250 kts | 326° |
| 2026-05-07 20:17 | 44.25208 | 9.17374 | 4518 ft | 235 kts | 327° |
| 2026-05-07 20:17 | 44.26544 | 9.16183 | 4374 ft | 219 kts | 327° |
| 2026-05-07 20:18 | 44.27786 | 9.15076 | 4257 ft | 204 kts | 327° |
| 2026-05-07 20:18 | 44.28953 | 9.14034 | 4152 ft | 194 kts | 327° |
| 2026-05-07 20:18 | 44.30053 | 9.13051 | 4044 ft | 182 kts | 327° |
| 2026-05-07 20:18 | 44.31093 | 9.12122 | 3919 ft | 174 kts | 327° |
| 2026-05-07 20:19 | 44.32124 | 9.11200 | 3856 ft | 177 kts | 327° |
| 2026-05-07 20:19 | 44.33168 | 9.10267 | 3789 ft | 178 kts | 327° |
| 2026-05-07 20:19 | 44.34210 | 9.09336 | 3619 ft | 176 kts | 328° |
| 2026-05-07 20:19 | 44.35230 | 9.08423 | 3413 ft | 171 kts | 326° |
| 2026-05-07 20:20 | 44.36049 | 9.07283 | 3234 ft | 163 kts | 302° |
| 2026-05-07 20:20 | 44.36551 | 9.05873 | 3041 ft | 162 kts | 289° |
| 2026-05-07 20:20 | 44.36890 | 9.04398 | 2855 ft | 158 kts | 285° |
| 2026-05-07 20:20 | 44.37200 | 9.02935 | 2651 ft | 156 kts | 285° |
| 2026-05-07 20:21 | 44.37511 | 9.01486 | 2423 ft | 154 kts | 286° |
| 2026-05-07 20:21 | 44.37816 | 9.00067 | 2214 ft | 154 kts | 286° |
| 2026-05-07 20:21 | 44.38125 | 8.98637 | 1998 ft | 153 kts | 286° |
| 2026-05-07 20:21 | 44.38433 | 8.97214 | 1784 ft | 152 kts | 286° |
| 2026-05-07 20:22 | 44.38733 | 8.95829 | 1575 ft | 145 kts | 286° |
| 2026-05-07 20:22 | 44.39024 | 8.94497 | 1354 ft | 142 kts | 289° |
| 2026-05-07 20:22 | 44.39386 | 8.93212 | 1120 ft | 142 kts | 290° |
| 2026-05-07 20:22 | 44.39669 | 8.91896 | 815 ft | 142 kts | 284° |
| 2026-05-07 20:23 | 44.39844 | 8.91002 | 664 ft | 140 kts | 286° |
| 2026-05-07 20:23 | 44.40104 | 8.89705 | 523 ft | 140 kts | 286° |
| 2026-05-07 20:23 | 44.40355 | 8.88384 | 369 ft | 140 kts | 287° |
| 2026-05-07 20:23 | 44.40620 | 8.87073 | 212 ft | 140 kts | 288° |
| 2026-05-07 20:24 | 44.40878 | 8.85758 | 47 ft | 140 kts | 289° |
| 2026-05-07 20:24 | 44.41109 | 8.84630 | 12 ft | 87 kts | 285° |
| 2026-05-07 20:24 | 44.41209 | 8.84108 | 14 ft | 25 kts | 284° |
| 2026-05-07 20:24 | 44.41255 | 8.83890 | 13 ft | 27 kts | 295° |
| 2026-05-07 20:25 | 44.41361 | 8.83748 | 12 ft | 14 kts | 354° |
| 2026-05-07 20:25 | 44.41417 | 8.83838 | 13 ft | 15 kts | 98° |
| 2026-05-07 20:25 | 44.41389 | 8.83994 | 13 ft | 18 kts | 105° |
| 2026-05-07 20:25 | 44.41353 | 8.84176 | 13 ft | 21 kts | 105° |
| 2026-05-07 20:26 | 44.41316 | 8.84383 | 12 ft | 23 kts | 104° |
| 2026-05-07 20:26 | 44.41269 | 8.84612 | 12 ft | 26 kts | 105° |
| 2026-05-07 20:26 | 44.41226 | 8.84827 | 14 ft | 15 kts | 106° |
| 2026-05-07 20:26 | 44.41260 | 8.84924 | 12 ft | 9 kts | 18° |
| 2026-05-07 20:27 | 44.41326 | 8.84957 | 13 ft | 11 kts | 43° |
| 2026-05-07 20:27 | 44.41387 | 8.85038 | 12 ft | 14 kts | 14° |
| 2026-05-07 20:27 | 44.41394 | 8.85040 | 12 ft | 0 kts | 14° |